Terminal Aerodrome Forecast
Issued by NWS

Home | Current Version | Previous Version | Text Only | Print | Product List | Glossary On
Versions: 1 2 3 4 5 6 7 8 9 10 11 12 13 14 15 16
000
FTUS45 KABQ 031734
TAFTCC
TAF
KTCC 031734Z 0318/0418 24015G25KT P6SM BKN150
     FM032200 22015G22KT P6SM SCT090 SCT150
     FM040200 22010KT P6SM SCT100 BKN150
     FM041500 24013KT P6SM SCT080 BKN150=

USA.gov is the U.S. government's official web portal to all federal, state and local government web resources and services.